sensor_id;sensor_type;location;lat;lon;timestamp;P1;durP1;ratioP1;P2;durP2;ratioP2
46022;SDS011;31756;47.936;16.224;2023-05-07T00:01:49;8.57;;;7.40;;
46022;SDS011;31756;47.936;16.224;2023-05-07T00:04:15;8.07;;;7.28;;
46022;SDS011;31756;47.936;16.224;2023-05-07T00:06:40;7.13;;;6.43;;
46022;SDS011;31756;47.936;16.224;2023-05-07T00:09:06;7.13;;;5.53;;
46022;SDS011;31756;47.936;16.224;2023-05-07T00:11:32;6.65;;;5.97;;
46022;SDS011;31756;47.936;16.224;2023-05-07T00:13:58;7.38;;;6.18;;
46022;SDS011;31756;47.936;16.224;2023-05-07T00:16:23;7.20;;;6.18;;
46022;SDS011;31756;47.936;16.224;2023-05-07T00:18:49;7.93;;;6.60;;
46022;SDS011;31756;47.936;16.224;2023-05-07T00:21:14;7.30;;;6.63;;
46022;SDS011;31756;47.936;16.224;2023-05-07T00:23:40;9.82;;;6.00;;
46022;SDS011;31756;47.936;16.224;2023-05-07T00:26:05;5.63;;;5.13;;
46022;SDS011;31756;47.936;16.224;2023-05-07T00:28:31;7.00;;;5.13;;
46022;SDS011;31756;47.936;16.224;2023-05-07T00:30:56;5.63;;;5.07;;
46022;SDS011;31756;47.936;16.224;2023-05-07T00:33:22;6.25;;;4.97;;
46022;SDS011;31756;47.936;16.224;2023-05-07T00:35:48;5.00;;;4.50;;
46022;SDS011;31756;47.936;16.224;2023-05-07T00:38:13;6.22;;;5.00;;
46022;SDS011;31756;47.936;16.224;2023-05-07T00:40:39;6.60;;;5.05;;
46022;SDS011;31756;47.936;16.224;2023-05-07T00:43:04;6.20;;;5.68;;
46022;SDS011;31756;47.936;16.224;2023-05-07T00:45:30;6.38;;;5.20;;
46022;SDS011;31756;47.936;16.224;2023-05-07T00:47:55;6.03;;;5.30;;
46022;SDS011;31756;47.936;16.224;2023-05-07T00:50:22;6.68;;;5.35;;
46022;SDS011;31756;47.936;16.224;2023-05-07T00:52:48;5.65;;;5.15;;
46022;SDS011;31756;47.936;16.224;2023-05-07T00:55:13;5.60;;;5.10;;
46022;SDS011;31756;47.936;16.224;2023-05-07T00:57:40;6.53;;;5.93;;
46022;SDS011;31756;47.936;16.224;2023-05-07T01:00:06;5.70;;;5.20;;
46022;SDS011;31756;47.936;16.224;2023-05-07T01:02:34;6.30;;;5.70;;
46022;SDS011;31756;47.936;16.224;2023-05-07T01:04:59;6.38;;;5.70;;
46022;SDS011;31756;47.936;16.224;2023-05-07T01:07:25;6.47;;;5.88;;
46022;SDS011;31756;47.936;16.224;2023-05-07T01:09:51;10.73;;;5.47;;
46022;SDS011;31756;47.936;16.224;2023-05-07T01:12:17;9.07;;;5.63;;
46022;SDS011;31756;47.936;16.224;2023-05-07T01:14:43;7.07;;;5.13;;
46022;SDS011;31756;47.936;16.224;2023-05-07T01:17:08;6.15;;;5.40;;
46022;SDS011;31756;47.936;16.224;2023-05-07T01:19:34;5.93;;;5.03;;
46022;SDS011;31756;47.936;16.224;2023-05-07T01:22:04;5.35;;;4.65;;
46022;SDS011;31756;47.936;16.224;2023-05-07T01:24:38;6.22;;;5.10;;
46022;SDS011;31756;47.936;16.224;2023-05-07T01:27:05;5.18;;;4.70;;
46022;SDS011;31756;47.936;16.224;2023-05-07T01:29:32;5.13;;;4.63;;
46022;SDS011;31756;47.936;16.224;2023-05-07T01:31:58;6.18;;;5.47;;
46022;SDS011;31756;47.936;16.224;2023-05-07T01:34:25;6.50;;;5.88;;
46022;SDS011;31756;47.936;16.224;2023-05-07T01:36:53;5.97;;;5.47;;
46022;SDS011;31756;47.936;16.224;2023-05-07T01:39:18;5.20;;;4.60;;
46022;SDS011;31756;47.936;16.224;2023-05-07T01:41:44;8.70;;;4.88;;
46022;SDS011;31756;47.936;16.224;2023-05-07T01:44:10;5.60;;;4.32;;
46022;SDS011;31756;47.936;16.224;2023-05-07T01:46:37;4.78;;;4.30;;
46022;SDS011;31756;47.936;16.224;2023-05-07T01:49:03;4.90;;;4.05;;
46022;SDS011;31756;47.936;16.224;2023-05-07T01:51:28;5.22;;;3.97;;
46022;SDS011;31756;47.936;16.224;2023-05-07T01:53:55;15.00;;;5.20;;
46022;SDS011;31756;47.936;16.224;2023-05-07T01:56:21;4.03;;;3.65;;
46022;SDS011;31756;47.936;16.224;2023-05-07T01:58:48;4.35;;;3.95;;
46022;SDS011;31756;47.936;16.224;2023-05-07T02:01:14;4.93;;;4.00;;
46022;SDS011;31756;47.936;16.224;2023-05-07T02:03:41;4.57;;;4.18;;
46022;SDS011;31756;47.936;16.224;2023-05-07T02:06:13;5.65;;;4.68;;
46022;SDS011;31756;47.936;16.224;2023-05-07T02:08:39;4.90;;;4.50;;
46022;SDS011;31756;47.936;16.224;2023-05-07T02:11:05;6.07;;;5.15;;
46022;SDS011;31756;47.936;16.224;2023-05-07T02:13:31;5.35;;;4.85;;
46022;SDS011;31756;47.936;16.224;2023-05-07T02:15:57;5.40;;;4.90;;
46022;SDS011;31756;47.936;16.224;2023-05-07T02:18:23;5.55;;;4.20;;
46022;SDS011;31756;47.936;16.224;2023-05-07T02:20:49;5.78;;;4.55;;
46022;SDS011;31756;47.936;16.224;2023-05-07T02:23:14;5.95;;;4.60;;
46022;SDS011;31756;47.936;16.224;2023-05-07T02:25:40;4.88;;;4.28;;
46022;SDS011;31756;47.936;16.224;2023-05-07T02:28:06;7.55;;;5.03;;
46022;SDS011;31756;47.936;16.224;2023-05-07T02:30:43;5.05;;;4.45;;
46022;SDS011;31756;47.936;16.224;2023-05-07T02:33:09;4.93;;;4.43;;
46022;SDS011;31756;47.936;16.224;2023-05-07T02:35:38;4.85;;;4.45;;
46022;SDS011;31756;47.936;16.224;2023-05-07T02:38:03;4.70;;;4.30;;
46022;SDS011;31756;47.936;16.224;2023-05-07T02:40:29;3.97;;;3.67;;
46022;SDS011;31756;47.936;16.224;2023-05-07T02:42:55;6.13;;;4.50;;
46022;SDS011;31756;47.936;16.224;2023-05-07T02:45:20;4.32;;;3.92;;
46022;SDS011;31756;47.936;16.224;2023-05-07T02:47:48;4.28;;;3.92;;
46022;SDS011;31756;47.936;16.224;2023-05-07T02:50:13;4.40;;;4.10;;
46022;SDS011;31756;47.936;16.224;2023-05-07T02:52:40;5.20;;;4.35;;
46022;SDS011;31756;47.936;16.224;2023-05-07T02:55:05;4.55;;;3.70;;
46022;SDS011;31756;47.936;16.224;2023-05-07T02:57:31;5.00;;;4.50;;
46022;SDS011;31756;47.936;16.224;2023-05-07T02:59:57;5.25;;;4.75;;
46022;SDS011;31756;47.936;16.224;2023-05-07T03:02:24;4.75;;;4.35;;
46022;SDS011;31756;47.936;16.224;2023-05-07T03:04:50;5.63;;;5.13;;
46022;SDS011;31756;47.936;16.224;2023-05-07T03:07:15;7.20;;;4.68;;
46022;SDS011;31756;47.936;16.224;2023-05-07T03:09:40;4.45;;;4.05;;
46022;SDS011;31756;47.936;16.224;2023-05-07T03:12:06;6.38;;;4.70;;
46022;SDS011;31756;47.936;16.224;2023-05-07T03:14:32;5.30;;;4.80;;
46022;SDS011;31756;47.936;16.224;2023-05-07T03:16:57;6.18;;;5.28;;
46022;SDS011;31756;47.936;16.224;2023-05-07T03:19:24;5.53;;;5.07;;
46022;SDS011;31756;47.936;16.224;2023-05-07T03:21:50;5.93;;;4.72;;
46022;SDS011;31756;47.936;16.224;2023-05-07T03:24:16;4.90;;;4.50;;
46022;SDS011;31756;47.936;16.224;2023-05-07T03:26:41;5.13;;;4.63;;
46022;SDS011;31756;47.936;16.224;2023-05-07T03:29:07;4.72;;;4.30;;
46022;SDS011;31756;47.936;16.224;2023-05-07T03:31:32;6.10;;;4.85;;
46022;SDS011;31756;47.936;16.224;2023-05-07T03:34:00;5.13;;;4.47;;
46022;SDS011;31756;47.936;16.224;2023-05-07T03:36:25;5.47;;;4.97;;
46022;SDS011;31756;47.936;16.224;2023-05-07T03:38:53;4.00;;;3.65;;
46022;SDS011;31756;47.936;16.224;2023-05-07T03:41:21;4.65;;;4.25;;
46022;SDS011;31756;47.936;16.224;2023-05-07T03:43:47;6.00;;;4.40;;
46022;SDS011;31756;47.936;16.224;2023-05-07T03:46:13;5.65;;;4.07;;
46022;SDS011;31756;47.936;16.224;2023-05-07T03:48:39;4.88;;;4.38;;
46022;SDS011;31756;47.936;16.224;2023-05-07T03:51:05;6.28;;;4.57;;
46022;SDS011;31756;47.936;16.224;2023-05-07T03:53:32;5.68;;;4.40;;
46022;SDS011;31756;47.936;16.224;2023-05-07T03:55:57;4.00;;;3.70;;
46022;SDS011;31756;47.936;16.224;2023-05-07T03:58:23;4.90;;;4.20;;
46022;SDS011;31756;47.936;16.224;2023-05-07T04:00:50;4.18;;;3.78;;
46022;SDS011;31756;47.936;16.224;2023-05-07T04:03:23;4.28;;;3.88;;
46022;SDS011;31756;47.936;16.224;2023-05-07T04:05:49;3.90;;;3.45;;
46022;SDS011;31756;47.936;16.224;2023-05-07T04:08:15;4.30;;;3.85;;
46022;SDS011;31756;47.936;16.224;2023-05-07T04:10:45;3.53;;;3.30;;
46022;SDS011;31756;47.936;16.224;2023-05-07T04:13:12;3.60;;;3.30;;
46022;SDS011;31756;47.936;16.224;2023-05-07T04:15:37;3.65;;;3.30;;
46022;SDS011;31756;47.936;16.224;2023-05-07T04:18:06;3.10;;;2.80;;
46022;SDS011;31756;47.936;16.224;2023-05-07T04:20:33;5.32;;;3.40;;
46022;SDS011;31756;47.936;16.224;2023-05-07T04:23:01;3.67;;;3.30;;
46022;SDS011;31756;47.936;16.224;2023-05-07T04:25:27;3.20;;;2.95;;
46022;SDS011;31756;47.936;16.224;2023-05-07T04:28:00;4.95;;;4.43;;
46022;SDS011;31756;47.936;16.224;2023-05-07T04:30:27;8.48;;;7.55;;
46022;SDS011;31756;47.936;16.224;2023-05-07T04:32:53;9.40;;;8.50;;
46022;SDS011;31756;47.936;16.224;2023-05-07T04:35:19;7.10;;;6.50;;
46022;SDS011;31756;47.936;16.224;2023-05-07T04:37:44;7.45;;;6.85;;
46022;SDS011;31756;47.936;16.224;2023-05-07T04:40:10;5.63;;;5.22;;
46022;SDS011;31756;47.936;16.224;2023-05-07T04:42:36;6.13;;;5.60;;
46022;SDS011;31756;47.936;16.224;2023-05-07T04:45:02;5.18;;;3.95;;
46022;SDS011;31756;47.936;16.224;2023-05-07T04:47:30;4.22;;;3.83;;
46022;SDS011;31756;47.936;16.224;2023-05-07T04:49:57;4.47;;;3.90;;
46022;SDS011;31756;47.936;16.224;2023-05-07T04:52:22;4.20;;;3.90;;
46022;SDS011;31756;47.936;16.224;2023-05-07T04:54:48;5.90;;;5.35;;
46022;SDS011;31756;47.936;16.224;2023-05-07T04:57:14;6.97;;;5.30;;
46022;SDS011;31756;47.936;16.224;2023-05-07T04:59:41;14.85;;;9.18;;
46022;SDS011;31756;47.936;16.224;2023-05-07T05:02:06;12.18;;;8.05;;
46022;SDS011;31756;47.936;16.224;2023-05-07T05:04:33;8.98;;;7.32;;
46022;SDS011;31756;47.936;16.224;2023-05-07T05:06:58;5.38;;;4.88;;
46022;SDS011;31756;47.936;16.224;2023-05-07T05:09:24;5.15;;;4.28;;
46022;SDS011;31756;47.936;16.224;2023-05-07T05:11:49;4.40;;;4.00;;
46022;SDS011;31756;47.936;16.224;2023-05-07T05:14:15;7.22;;;4.43;;
46022;SDS011;31756;47.936;16.224;2023-05-07T05:16:40;4.55;;;4.15;;
46022;SDS011;31756;47.936;16.224;2023-05-07T05:19:06;3.90;;;3.60;;
46022;SDS011;31756;47.936;16.224;2023-05-07T05:21:35;4.72;;;3.28;;
46022;SDS011;31756;47.936;16.224;2023-05-07T05:24:05;4.85;;;4.22;;
46022;SDS011;31756;47.936;16.224;2023-05-07T05:26:31;4.32;;;3.92;;
46022;SDS011;31756;47.936;16.224;2023-05-07T05:28:57;4.97;;;4.15;;
46022;SDS011;31756;47.936;16.224;2023-05-07T05:31:24;5.55;;;5.05;;
46022;SDS011;31756;47.936;16.224;2023-05-07T05:33:50;5.03;;;4.50;;
46022;SDS011;31756;47.936;16.224;2023-05-07T05:36:16;4.25;;;3.95;;
46022;SDS011;31756;47.936;16.224;2023-05-07T05:38:43;4.60;;;4.20;;
46022;SDS011;31756;47.936;16.224;2023-05-07T05:41:10;4.22;;;3.85;;
46022;SDS011;31756;47.936;16.224;2023-05-07T05:43:35;5.15;;;4.68;;
46022;SDS011;31756;47.936;16.224;2023-05-07T05:46:01;6.10;;;4.93;;
46022;SDS011;31756;47.936;16.224;2023-05-07T05:48:28;6.05;;;5.45;;
46022;SDS011;31756;47.936;16.224;2023-05-07T05:50:54;6.95;;;6.32;;
46022;SDS011;31756;47.936;16.224;2023-05-07T05:53:20;9.27;;;6.57;;
46022;SDS011;31756;47.936;16.224;2023-05-07T05:55:45;8.65;;;6.82;;
46022;SDS011;31756;47.936;16.224;2023-05-07T05:58:11;10.85;;;8.18;;
46022;SDS011;31756;47.936;16.224;2023-05-07T06:00:41;9.88;;;8.25;;
46022;SDS011;31756;47.936;16.224;2023-05-07T06:03:06;9.68;;;8.70;;
46022;SDS011;31756;47.936;16.224;2023-05-07T06:05:33;11.32;;;9.43;;
46022;SDS011;31756;47.936;16.224;2023-05-07T06:07:58;12.40;;;8.88;;
46022;SDS011;31756;47.936;16.224;2023-05-07T06:10:27;11.00;;;9.80;;
46022;SDS011;31756;47.936;16.224;2023-05-07T06:12:53;11.80;;;8.73;;
46022;SDS011;31756;47.936;16.224;2023-05-07T06:15:19;12.15;;;9.80;;
46022;SDS011;31756;47.936;16.224;2023-05-07T06:17:45;12.65;;;10.73;;
46022;SDS011;31756;47.936;16.224;2023-05-07T06:20:10;11.68;;;10.43;;
46022;SDS011;31756;47.936;16.224;2023-05-07T06:22:37;14.77;;;10.35;;
46022;SDS011;31756;47.936;16.224;2023-05-07T06:25:03;13.18;;;9.80;;
46022;SDS011;31756;47.936;16.224;2023-05-07T06:27:29;13.60;;;12.05;;
46022;SDS011;31756;47.936;16.224;2023-05-07T06:29:56;12.68;;;9.38;;
46022;SDS011;31756;47.936;16.224;2023-05-07T06:32:21;12.27;;;10.05;;
46022;SDS011;31756;47.936;16.224;2023-05-07T06:34:48;11.60;;;9.15;;
46022;SDS011;31756;47.936;16.224;2023-05-07T06:37:14;10.25;;;9.07;;
46022;SDS011;31756;47.936;16.224;2023-05-07T06:42:15;13.25;;;10.73;;
46022;SDS011;31756;47.936;16.224;2023-05-07T06:44:42;11.63;;;9.15;;
46022;SDS011;31756;47.936;16.224;2023-05-07T06:47:10;11.52;;;10.32;;
46022;SDS011;31756;47.936;16.224;2023-05-07T06:49:38;12.60;;;11.30;;
46022;SDS011;31756;47.936;16.224;2023-05-07T06:52:04;11.43;;;9.85;;
46022;SDS011;31756;47.936;16.224;2023-05-07T06:54:29;13.25;;;10.82;;
46022;SDS011;31756;47.936;16.224;2023-05-07T06:56:55;11.25;;;10.02;;
46022;SDS011;31756;47.936;16.224;2023-05-07T06:59:23;11.60;;;10.40;;
46022;SDS011;31756;47.936;16.224;2023-05-07T07:01:49;12.68;;;10.82;;
46022;SDS011;31756;47.936;16.224;2023-05-07T07:04:14;12.73;;;11.40;;
46022;SDS011;31756;47.936;16.224;2023-05-07T07:06:42;14.60;;;11.55;;
46022;SDS011;31756;47.936;16.224;2023-05-07T07:09:11;14.85;;;11.38;;
46022;SDS011;31756;47.936;16.224;2023-05-07T07:11:37;13.40;;;11.65;;
46022;SDS011;31756;47.936;16.224;2023-05-07T07:14:03;13.65;;;12.15;;
46022;SDS011;31756;47.936;16.224;2023-05-07T07:16:33;12.93;;;11.63;;
46022;SDS011;31756;47.936;16.224;2023-05-07T07:18:58;16.45;;;12.02;;
46022;SDS011;31756;47.936;16.224;2023-05-07T07:21:24;12.77;;;11.45;;
46022;SDS011;31756;47.936;16.224;2023-05-07T07:23:51;16.45;;;13.07;;
46022;SDS011;31756;47.936;16.224;2023-05-07T07:26:18;12.20;;;10.95;;
46022;SDS011;31756;47.936;16.224;2023-05-07T07:28:47;12.93;;;11.68;;
46022;SDS011;31756;47.936;16.224;2023-05-07T07:31:16;14.52;;;11.52;;
46022;SDS011;31756;47.936;16.224;2023-05-07T07:33:42;14.73;;;13.15;;
46022;SDS011;31756;47.936;16.224;2023-05-07T07:36:08;14.10;;;12.70;;
46022;SDS011;31756;47.936;16.224;2023-05-07T07:38:34;14.07;;;12.23;;
46022;SDS011;31756;47.936;16.224;2023-05-07T07:41:00;16.35;;;12.57;;
46022;SDS011;31756;47.936;16.224;2023-05-07T07:43:28;17.17;;;13.48;;
46022;SDS011;31756;47.936;16.224;2023-05-07T07:45:54;14.50;;;12.73;;
46022;SDS011;31756;47.936;16.224;2023-05-07T07:48:20;22.35;;;15.70;;
46022;SDS011;31756;47.936;16.224;2023-05-07T07:50:48;17.85;;;13.65;;
46022;SDS011;31756;47.936;16.224;2023-05-07T07:53:15;15.93;;;14.07;;
46022;SDS011;31756;47.936;16.224;2023-05-07T07:55:40;17.92;;;16.00;;
46022;SDS011;31756;47.936;16.224;2023-05-07T07:58:07;16.90;;;15.18;;
46022;SDS011;31756;47.936;16.224;2023-05-07T08:00:33;16.75;;;13.65;;
46022;SDS011;31756;47.936;16.224;2023-05-07T08:02:59;13.23;;;11.82;;
46022;SDS011;31756;47.936;16.224;2023-05-07T08:05:30;13.80;;;12.30;;
46022;SDS011;31756;47.936;16.224;2023-05-07T08:07:57;14.23;;;11.75;;
46022;SDS011;31756;47.936;16.224;2023-05-07T08:10:28;13.38;;;11.68;;
46022;SDS011;31756;47.936;16.224;2023-05-07T08:13:00;15.48;;;11.73;;
46022;SDS011;31756;47.936;16.224;2023-05-07T08:15:27;13.48;;;12.07;;
46022;SDS011;31756;47.936;16.224;2023-05-07T08:17:52;15.00;;;13.40;;
46022;SDS011;31756;47.936;16.224;2023-05-07T08:20:18;16.80;;;13.02;;
46022;SDS011;31756;47.936;16.224;2023-05-07T08:22:44;16.63;;;13.52;;
46022;SDS011;31756;47.936;16.224;2023-05-07T08:25:09;14.65;;;12.88;;
46022;SDS011;31756;47.936;16.224;2023-05-07T08:27:35;18.10;;;13.95;;
46022;SDS011;31756;47.936;16.224;2023-05-07T08:30:01;14.18;;;12.55;;
46022;SDS011;31756;47.936;16.224;2023-05-07T08:32:26;14.85;;;13.30;;
46022;SDS011;31756;47.936;16.224;2023-05-07T08:34:53;17.40;;;13.73;;
46022;SDS011;31756;47.936;16.224;2023-05-07T08:37:18;14.27;;;12.63;;
46022;SDS011;31756;47.936;16.224;2023-05-07T08:39:44;15.02;;;12.85;;
46022;SDS011;31756;47.936;16.224;2023-05-07T08:42:17;13.02;;;11.52;;
46022;SDS011;31756;47.936;16.224;2023-05-07T08:44:44;14.63;;;12.38;;
46022;SDS011;31756;47.936;16.224;2023-05-07T08:47:12;16.52;;;12.13;;
46022;SDS011;31756;47.936;16.224;2023-05-07T08:49:38;16.27;;;12.95;;
46022;SDS011;31756;47.936;16.224;2023-05-07T08:52:06;16.85;;;13.15;;
46022;SDS011;31756;47.936;16.224;2023-05-07T08:54:32;14.07;;;12.65;;
46022;SDS011;31756;47.936;16.224;2023-05-07T08:56:59;12.85;;;11.43;;
46022;SDS011;31756;47.936;16.224;2023-05-07T08:59:25;15.57;;;13.05;;
46022;SDS011;31756;47.936;16.224;2023-05-07T09:01:51;17.42;;;13.55;;
46022;SDS011;31756;47.936;16.224;2023-05-07T09:04:17;17.33;;;14.07;;
46022;SDS011;31756;47.936;16.224;2023-05-07T09:06:43;17.42;;;14.30;;
46022;SDS011;31756;47.936;16.224;2023-05-07T09:09:13;16.23;;;14.52;;
46022;SDS011;31756;47.936;16.224;2023-05-07T09:11:40;15.73;;;13.98;;
46022;SDS011;31756;47.936;16.224;2023-05-07T09:14:07;14.68;;;13.15;;
46022;SDS011;31756;47.936;16.224;2023-05-07T09:16:37;16.80;;;13.75;;
46022;SDS011;31756;47.936;16.224;2023-05-07T09:19:03;19.25;;;15.38;;
46022;SDS011;31756;47.936;16.224;2023-05-07T09:21:28;18.42;;;13.77;;
46022;SDS011;31756;47.936;16.224;2023-05-07T09:23:58;18.02;;;15.27;;
46022;SDS011;31756;47.936;16.224;2023-05-07T09:26:31;17.13;;;14.15;;
46022;SDS011;31756;47.936;16.224;2023-05-07T09:28:58;16.70;;;13.35;;
46022;SDS011;31756;47.936;16.224;2023-05-07T09:31:23;16.40;;;14.70;;
46022;SDS011;31756;47.936;16.224;2023-05-07T09:33:52;14.00;;;12.23;;
46022;SDS011;31756;47.936;16.224;2023-05-07T09:36:18;15.07;;;12.60;;
46022;SDS011;31756;47.936;16.224;2023-05-07T09:38:44;17.02;;;14.75;;
46022;SDS011;31756;47.936;16.224;2023-05-07T09:41:11;15.32;;;12.85;;
46022;SDS011;31756;47.936;16.224;2023-05-07T09:43:55;19.40;;;15.48;;
46022;SDS011;31756;47.936;16.224;2023-05-07T09:46:28;16.98;;;13.55;;
46022;SDS011;31756;47.936;16.224;2023-05-07T09:48:58;15.90;;;13.57;;
46022;SDS011;31756;47.936;16.224;2023-05-07T09:51:29;16.70;;;12.93;;
46022;SDS011;31756;47.936;16.224;2023-05-07T09:53:58;15.50;;;12.35;;
46022;SDS011;31756;47.936;16.224;2023-05-07T09:56:27;15.43;;;13.82;;
46022;SDS011;31756;47.936;16.224;2023-05-07T09:58:54;15.73;;;14.23;;
46022;SDS011;31756;47.936;16.224;2023-05-07T10:01:21;14.70;;;13.20;;
46022;SDS011;31756;47.936;16.224;2023-05-07T10:03:49;14.20;;;12.57;;
46022;SDS011;31756;47.936;16.224;2023-05-07T10:06:15;14.35;;;12.80;;
46022;SDS011;31756;47.936;16.224;2023-05-07T10:08:42;12.55;;;11.25;;
46022;SDS011;31756;47.936;16.224;2023-05-07T10:11:08;14.30;;;12.70;;
46022;SDS011;31756;47.936;16.224;2023-05-07T10:13:35;15.13;;;13.23;;
46022;SDS011;31756;47.936;16.224;2023-05-07T10:16:06;13.25;;;11.88;;
46022;SDS011;31756;47.936;16.224;2023-05-07T10:18:38;13.50;;;12.00;;
46022;SDS011;31756;47.936;16.224;2023-05-07T10:21:16;14.20;;;12.75;;
46022;SDS011;31756;47.936;16.224;2023-05-07T10:23:44;14.20;;;12.27;;
46022;SDS011;31756;47.936;16.224;2023-05-07T10:26:09;14.93;;;12.35;;
46022;SDS011;31756;47.936;16.224;2023-05-07T10:28:40;17.30;;;11.60;;
46022;SDS011;31756;47.936;16.224;2023-05-07T10:33:44;13.20;;;11.90;;
46022;SDS011;31756;47.936;16.224;2023-05-07T10:36:12;12.82;;;11.32;;
46022;SDS011;31756;47.936;16.224;2023-05-07T10:38:37;13.32;;;11.90;;
46022;SDS011;31756;47.936;16.224;2023-05-07T10:41:05;13.40;;;11.98;;
46022;SDS011;31756;47.936;16.224;2023-05-07T10:43:39;14.68;;;13.18;;
46022;SDS011;31756;47.936;16.224;2023-05-07T10:48:44;15.25;;;11.10;;
46022;SDS011;31756;47.936;16.224;2023-05-07T10:51:21;13.45;;;11.52;;
46022;SDS011;31756;47.936;16.224;2023-05-07T10:56:52;10.98;;;9.90;;
46022;SDS011;31756;47.936;16.224;2023-05-07T10:59:35;12.30;;;10.88;;
46022;SDS011;31756;47.936;16.224;2023-05-07T11:02:17;12.57;;;10.88;;
46022;SDS011;31756;47.936;16.224;2023-05-07T11:07:34;10.93;;;9.63;;
46022;SDS011;31756;47.936;16.224;2023-05-07T11:10:08;11.23;;;10.07;;
46022;SDS011;31756;47.936;16.224;2023-05-07T11:12:47;13.90;;;12.52;;
46022;SDS011;31756;47.936;16.224;2023-05-07T11:15:36;12.70;;;11.40;;
46022;SDS011;31756;47.936;16.224;2023-05-07T11:18:08;15.32;;;12.68;;
46022;SDS011;31756;47.936;16.224;2023-05-07T11:20:47;12.75;;;11.43;;
46022;SDS011;31756;47.936;16.224;2023-05-07T11:26:26;12.75;;;11.45;;
46022;SDS011;31756;47.936;16.224;2023-05-07T11:28:52;13.57;;;11.20;;
46022;SDS011;31756;47.936;16.224;2023-05-07T11:31:23;12.52;;;11.20;;
46022;SDS011;31756;47.936;16.224;2023-05-07T11:33:49;11.82;;;10.55;;
46022;SDS011;31756;47.936;16.224;2023-05-07T11:36:18;11.07;;;9.98;;
46022;SDS011;31756;47.936;16.224;2023-05-07T11:38:47;12.70;;;11.45;;
46022;SDS011;31756;47.936;16.224;2023-05-07T11:41:12;12.40;;;11.05;;
46022;SDS011;31756;47.936;16.224;2023-05-07T11:43:38;10.57;;;9.48;;
46022;SDS011;31756;47.936;16.224;2023-05-07T11:46:09;11.07;;;9.13;;
46022;SDS011;31756;47.936;16.224;2023-05-07T11:48:35;12.70;;;9.57;;
46022;SDS011;31756;47.936;16.224;2023-05-07T11:51:01;8.57;;;7.82;;
46022;SDS011;31756;47.936;16.224;2023-05-07T11:53:28;10.40;;;9.40;;
46022;SDS011;31756;47.936;16.224;2023-05-07T11:55:56;12.38;;;11.07;;
46022;SDS011;31756;47.936;16.224;2023-05-07T11:58:23;13.13;;;11.68;;
46022;SDS011;31756;47.936;16.224;2023-05-07T12:00:52;12.23;;;11.13;;
46022;SDS011;31756;47.936;16.224;2023-05-07T12:03:18;12.32;;;11.20;;
46022;SDS011;31756;47.936;16.224;2023-05-07T12:05:47;12.63;;;10.70;;
46022;SDS011;31756;47.936;16.224;2023-05-07T12:08:16;10.48;;;9.38;;
46022;SDS011;31756;47.936;16.224;2023-05-07T12:10:41;11.75;;;10.55;;
46022;SDS011;31756;47.936;16.224;2023-05-07T12:13:14;12.35;;;11.05;;
46022;SDS011;31756;47.936;16.224;2023-05-07T12:15:40;11.90;;;10.70;;
46022;SDS011;31756;47.936;16.224;2023-05-07T12:18:05;13.38;;;11.98;;
46022;SDS011;31756;47.936;16.224;2023-05-07T12:20:31;13.80;;;12.50;;
46022;SDS011;31756;47.936;16.224;2023-05-07T12:22:56;12.30;;;10.23;;
46022;SDS011;31756;47.936;16.224;2023-05-07T12:25:22;12.57;;;11.38;;
46022;SDS011;31756;47.936;16.224;2023-05-07T12:27:51;12.43;;;11.23;;
46022;SDS011;31756;47.936;16.224;2023-05-07T12:30:17;15.05;;;10.48;;
46022;SDS011;31756;47.936;16.224;2023-05-07T12:32:43;10.43;;;9.27;;
46022;SDS011;31756;47.936;16.224;2023-05-07T12:35:10;12.20;;;11.02;;
46022;SDS011;31756;47.936;16.224;2023-05-07T12:37:35;11.70;;;10.57;;
46022;SDS011;31756;47.936;16.224;2023-05-07T12:40:05;13.40;;;12.05;;
46022;SDS011;31756;47.936;16.224;2023-05-07T12:42:37;11.93;;;10.68;;
46022;SDS011;31756;47.936;16.224;2023-05-07T12:45:09;11.77;;;10.68;;
46022;SDS011;31756;47.936;16.224;2023-05-07T12:47:35;13.38;;;11.85;;
46022;SDS011;31756;47.936;16.224;2023-05-07T12:50:02;15.00;;;11.35;;
46022;SDS011;31756;47.936;16.224;2023-05-07T12:52:27;16.45;;;12.18;;
46022;SDS011;31756;47.936;16.224;2023-05-07T12:54:53;11.43;;;10.25;;
46022;SDS011;31756;47.936;16.224;2023-05-07T12:57:19;13.43;;;10.98;;
46022;SDS011;31756;47.936;16.224;2023-05-07T12:59:44;11.43;;;9.88;;
46022;SDS011;31756;47.936;16.224;2023-05-07T13:02:10;12.60;;;11.15;;
46022;SDS011;31756;47.936;16.224;2023-05-07T13:04:37;11.32;;;10.13;;
46022;SDS011;31756;47.936;16.224;2023-05-07T13:07:02;11.85;;;9.32;;
46022;SDS011;31756;47.936;16.224;2023-05-07T13:09:28;11.57;;;9.57;;
46022;SDS011;31756;47.936;16.224;2023-05-07T13:11:57;11.50;;;9.98;;
46022;SDS011;31756;47.936;16.224;2023-05-07T13:14:25;9.68;;;8.63;;
46022;SDS011;31756;47.936;16.224;2023-05-07T13:16:50;10.43;;;8.65;;
46022;SDS011;31756;47.936;16.224;2023-05-07T13:19:16;10.93;;;8.98;;
46022;SDS011;31756;47.936;16.224;2023-05-07T13:21:42;9.95;;;8.23;;
46022;SDS011;31756;47.936;16.224;2023-05-07T13:24:08;11.65;;;8.95;;
46022;SDS011;31756;47.936;16.224;2023-05-07T13:26:34;11.50;;;9.35;;
46022;SDS011;31756;47.936;16.224;2023-05-07T13:28:59;35.75;;;21.30;;
46022;SDS011;31756;47.936;16.224;2023-05-07T13:31:25;10.52;;;9.43;;
46022;SDS011;31756;47.936;16.224;2023-05-07T13:33:51;12.23;;;9.00;;
46022;SDS011;31756;47.936;16.224;2023-05-07T13:36:17;11.93;;;9.85;;
46022;SDS011;31756;47.936;16.224;2023-05-07T13:38:43;10.95;;;8.45;;
46022;SDS011;31756;47.936;16.224;2023-05-07T13:41:09;9.85;;;8.85;;
46022;SDS011;31756;47.936;16.224;2023-05-07T13:43:34;10.98;;;9.20;;
46022;SDS011;31756;47.936;16.224;2023-05-07T13:46:00;9.10;;;8.25;;
46022;SDS011;31756;47.936;16.224;2023-05-07T13:48:25;12.70;;;10.60;;
46022;SDS011;31756;47.936;16.224;2023-05-07T13:50:51;16.75;;;14.90;;
46022;SDS011;31756;47.936;16.224;2023-05-07T13:53:17;10.20;;;9.10;;
46022;SDS011;31756;47.936;16.224;2023-05-07T13:55:43;11.98;;;10.45;;
46022;SDS011;31756;47.936;16.224;2023-05-07T13:58:09;9.93;;;8.93;;
46022;SDS011;31756;47.936;16.224;2023-05-07T14:00:34;9.98;;;9.07;;
46022;SDS011;31756;47.936;16.224;2023-05-07T14:03:00;9.40;;;8.23;;
46022;SDS011;31756;47.936;16.224;2023-05-07T14:05:25;10.63;;;9.50;;
46022;SDS011;31756;47.936;16.224;2023-05-07T14:07:53;9.65;;;8.25;;
46022;SDS011;31756;47.936;16.224;2023-05-07T14:10:19;10.75;;;8.27;;
46022;SDS011;31756;47.936;16.224;2023-05-07T14:12:45;9.75;;;8.82;;
46022;SDS011;31756;47.936;16.224;2023-05-07T14:15:12;10.13;;;8.20;;
46022;SDS011;31756;47.936;16.224;2023-05-07T14:17:38;9.75;;;8.75;;
46022;SDS011;31756;47.936;16.224;2023-05-07T14:20:04;8.18;;;7.38;;
46022;SDS011;31756;47.936;16.224;2023-05-07T14:22:31;10.02;;;8.52;;
46022;SDS011;31756;47.936;16.224;2023-05-07T14:24:56;8.93;;;8.05;;
46022;SDS011;31756;47.936;16.224;2023-05-07T14:27:22;9.23;;;7.65;;
46022;SDS011;31756;47.936;16.224;2023-05-07T14:29:47;9.25;;;8.25;;
46022;SDS011;31756;47.936;16.224;2023-05-07T14:32:17;9.23;;;8.27;;
46022;SDS011;31756;47.936;16.224;2023-05-07T14:34:43;8.60;;;7.75;;
46022;SDS011;31756;47.936;16.224;2023-05-07T14:37:08;7.85;;;7.13;;